createdAt,value
2022-12-26T00:01:14.754Z,100459.63
2022-12-26T00:03:16.417Z,100467.97
2022-12-26T00:05:18.123Z,100460.53
2022-12-26T00:07:19.799Z,100459.25
2022-12-26T00:09:21.335Z,100459.63
2022-12-26T00:11:23.576Z,100450.63
2022-12-26T00:13:39.195Z,100440.38
2022-12-26T00:15:43.002Z,100421.91
2022-12-26T00:17:45.969Z,100422.81
2022-12-26T00:19:47.742Z,100423.94
2022-12-26T00:21:49.701Z,100423.53
2022-12-26T00:23:51.601Z,100430.16
2022-12-26T00:25:53.186Z,100423.03
2022-12-26T00:27:54.769Z,100430.16
2022-12-26T00:29:56.357Z,100430.53
2022-12-26T00:31:57.977Z,100434.13
2022-12-26T00:34:01.448Z,100424.91
2022-12-26T00:36:03.737Z,100427.50
2022-12-26T00:38:05.268Z,100426.94
2022-12-26T00:40:07.996Z,100439.94
2022-12-26T00:42:09.665Z,100438.88
2022-12-26T00:44:11.238Z,100440.47
2022-12-26T00:46:13.131Z,100443.38
2022-12-26T00:48:14.661Z,100439.28
2022-12-26T00:50:17.725Z,100434.25
2022-12-26T00:52:19.270Z,100430.75
2022-12-26T00:54:20.833Z,100436.16
2022-12-26T00:56:22.422Z,100442.66
2022-12-26T00:58:24.495Z,100442.59
2022-12-26T01:00:26.353Z,100442.72
2022-12-26T01:02:28.023Z,100450.22
2022-12-26T01:04:29.717Z,100437.47
2022-12-26T01:06:32.608Z,100436.69
2022-12-26T01:08:34.542Z,100425.22
2022-12-26T01:10:36.192Z,100428.94
2022-12-26T01:12:37.933Z,100435.19
2022-12-26T01:14:39.506Z,100436.56
2022-12-26T01:16:42.930Z,100431.78
2022-12-26T01:18:44.540Z,100425.09
2022-12-26T01:20:46.276Z,100428.31
2022-12-26T01:22:49.201Z,100432.34
2022-12-26T01:24:53.708Z,100423.19
2022-12-26T01:26:55.419Z,100431.31
2022-12-26T01:28:56.969Z,100441.16
2022-12-26T01:31:01.926Z,100440.63
2022-12-26T01:33:03.469Z,100436.84
2022-12-26T01:35:05.864Z,100436.31
2022-12-26T01:37:07.638Z,100451.97
2022-12-26T01:39:10.615Z,100458.19
2022-12-26T01:41:12.676Z,100459.19
2022-12-26T01:43:15.860Z,100451.88
2022-12-26T01:45:28.800Z,100465.34
2022-12-26T01:47:39.627Z,100470.78
2022-12-26T01:49:44.151Z,100470.81
2022-12-26T01:51:51.647Z,100465.94
2022-12-26T01:53:56.423Z,100457.25
2022-12-26T01:56:23.417Z,100460.44
2022-12-26T01:58:30.592Z,100460.94
2022-12-26T02:00:33.410Z,100458.63
2022-12-26T02:02:36.040Z,100450.78
2022-12-26T02:04:41.020Z,100445.16
2022-12-26T02:06:42.791Z,100450.38
2022-12-26T02:08:45.660Z,100453.66
2022-12-26T02:10:51.086Z,100468.00
2022-12-26T02:12:54.890Z,100456.69
2022-12-26T02:14:58.111Z,100465.28
2022-12-26T02:16:59.778Z,100461.28
2022-12-26T02:19:02.105Z,100471.59
2022-12-26T02:21:16.148Z,100476.41
2022-12-26T02:23:51.351Z,100471.09
2022-12-26T02:26:37.368Z,100484.84
2022-12-26T02:28:54.279Z,100481.84
2022-12-26T02:31:02.671Z,100474.91
2022-12-26T02:33:21.796Z,100484.63
2022-12-26T02:35:41.430Z,100480.59
2022-12-26T02:37:56.832Z,100480.34
2022-12-26T02:40:15.640Z,100476.81
2022-12-26T02:42:29.289Z,100470.28
2022-12-26T02:44:38.557Z,100467.00
2022-12-26T02:46:50.203Z,100483.75
2022-12-26T02:48:58.655Z,100489.97
2022-12-26T02:51:12.417Z,100489.75
2022-12-26T02:53:21.766Z,100494.84
2022-12-26T02:55:28.841Z,100489.75
2022-12-26T02:57:37.300Z,100481.31
2022-12-26T02:59:55.760Z,100476.50
2022-12-26T03:02:03.553Z,100466.34
2022-12-26T03:04:12.011Z,100476.91
2022-12-26T03:06:17.485Z,100471.78
2022-12-26T03:08:25.447Z,100477.91
2022-12-26T03:10:32.832Z,100468.16
2022-12-26T03:12:40.116Z,100474.69
2022-12-26T03:14:48.053Z,100474.47
2022-12-26T03:16:55.457Z,100481.28
2022-12-26T03:19:03.385Z,100481.81
2022-12-26T03:21:07.484Z,100481.00
2022-12-26T03:23:11.761Z,100479.09
2022-12-26T03:25:19.230Z,100472.59
2022-12-26T03:27:21.493Z,100469.38
2022-12-26T03:29:24.258Z,100458.53
2022-12-26T03:31:25.950Z,100459.66
2022-12-26T03:33:31.934Z,100447.22
2022-12-26T03:35:34.831Z,100430.66
2022-12-26T03:37:48.423Z,100425.75
2022-12-26T03:40:02.051Z,100434.69
2022-12-26T03:42:10.461Z,100441.47
2022-12-26T03:44:26.563Z,100439.41
2022-12-26T03:46:38.387Z,100440.19
2022-12-26T03:48:49.713Z,100441.00
2022-12-26T03:50:58.894Z,100441.78
2022-12-26T03:53:08.566Z,100447.94
2022-12-26T03:55:15.581Z,100451.53
2022-12-26T03:57:21.717Z,100446.91
2022-12-26T03:59:30.283Z,100457.44
2022-12-26T04:01:34.560Z,100455.84
2022-12-26T04:03:40.115Z,100458.25
2022-12-26T04:05:46.111Z,100460.56
2022-12-26T04:07:56.410Z,100462.97
2022-12-26T04:10:04.169Z,100462.69
2022-12-26T04:12:13.043Z,100472.09
2022-12-26T04:14:31.232Z,100468.81
2022-12-26T04:16:36.110Z,100478.81
2022-12-26T04:18:43.119Z,100479.06
2022-12-26T04:20:51.256Z,100490.69
2022-12-26T04:23:00.224Z,100484.47
2022-12-26T04:25:08.826Z,100483.66
2022-12-26T04:27:13.095Z,100483.84
2022-12-26T04:29:15.062Z,100486.75
2022-12-26T04:31:24.817Z,100479.44
2022-12-26T04:33:30.904Z,100484.25
2022-12-26T04:35:37.372Z,100487.19
2022-12-26T04:37:43.625Z,100481.31
2022-12-26T04:39:50.014Z,100484.25
2022-12-26T04:41:53.542Z,100478.81
2022-12-26T04:43:58.870Z,100480.44
2022-12-26T04:46:01.674Z,100487.97
2022-12-26T04:48:03.526Z,100487.19
2022-12-26T04:50:06.269Z,100473.03
2022-12-26T04:52:11.238Z,100479.06
2022-12-26T04:54:12.772Z,100485.25
2022-12-26T04:56:15.652Z,100493.59
2022-12-26T04:58:17.240Z,100485.69
2022-12-26T05:00:18.927Z,100485.97
2022-12-26T05:02:20.633Z,100479.78
2022-12-26T05:04:22.320Z,100499.22
2022-12-26T05:06:23.877Z,100501.66
2022-12-26T05:08:30.697Z,100495.16
2022-12-26T05:10:32.242Z,100487.31
2022-12-26T05:12:35.365Z,100494.53
2022-12-26T05:14:37.744Z,100494.25
2022-12-26T05:16:39.253Z,100495.34
2022-12-26T05:18:40.775Z,100484.13
2022-12-26T05:20:42.321Z,100491.75
2022-12-26T05:22:45.173Z,100494.19
2022-12-26T05:24:46.923Z,100503.59
2022-12-26T05:26:48.558Z,100496.28
2022-12-26T05:28:55.827Z,100494.66
2022-12-26T05:30:57.850Z,100501.81
2022-12-26T05:32:59.406Z,100492.56
2022-12-26T05:35:00.911Z,100493.94
2022-12-26T05:37:02.571Z,100491.88
2022-12-26T05:39:04.679Z,100487.22
2022-12-26T05:41:06.382Z,100498.59
2022-12-26T05:43:07.914Z,100501.69
2022-12-26T05:45:11.223Z,100499.75
2022-12-26T05:47:12.770Z,100497.66
2022-12-26T05:49:14.275Z,100489.75
2022-12-26T05:51:15.871Z,100496.47
2022-12-26T05:53:17.423Z,100494.84
2022-12-26T05:55:19.043Z,100501.38
2022-12-26T05:57:20.594Z,100503.59
2022-12-26T05:59:22.097Z,100499.28
2022-12-26T06:01:26.722Z,100502.00
2022-12-26T06:03:28.371Z,100501.03
2022-12-26T06:05:29.886Z,100495.56
2022-12-26T06:07:31.373Z,100484.00
2022-12-26T06:09:32.943Z,100483.25
2022-12-26T06:11:34.491Z,100489.56
2022-12-26T06:13:36.632Z,100495.31
2022-12-26T06:15:38.508Z,100488.16
2022-12-26T06:17:41.391Z,100500.09
2022-12-26T06:19:46.747Z,100496.88
2022-12-26T06:21:48.673Z,100494.47
2022-12-26T06:23:50.539Z,100494.69
2022-12-26T06:25:55.810Z,100486.56
2022-12-26T06:27:57.370Z,100492.22
2022-12-26T06:29:58.930Z,100498.72
2022-12-26T06:32:00.540Z,100500.09
2022-12-26T06:34:03.623Z,100502.53
2022-12-26T06:36:06.742Z,100511.53
2022-12-26T06:38:08.262Z,100499.50
2022-12-26T06:40:10.655Z,100510.34
2022-12-26T06:42:12.861Z,100511.81
2022-12-26T06:44:18.433Z,100509.03
2022-12-26T06:46:22.356Z,100514.91
2022-12-26T06:48:24.438Z,100516.50
2022-12-26T06:50:28.055Z,100530.84
2022-12-26T06:52:29.687Z,100529.53
2022-12-26T06:54:31.274Z,100524.03
2022-12-26T06:56:33.157Z,100531.97
2022-12-26T06:58:34.881Z,100537.06
2022-12-26T07:00:36.478Z,100543.16
2022-12-26T07:02:38.199Z,100548.25
2022-12-26T07:04:42.234Z,100548.22
2022-12-26T07:06:45.132Z,100543.28
2022-12-26T07:08:46.916Z,100545.72
2022-12-26T07:10:48.441Z,100547.09
2022-12-26T07:12:49.985Z,100542.84
2022-12-26T07:14:52.066Z,100552.94
2022-12-26T07:16:56.045Z,100549.44
2022-12-26T07:18:58.631Z,100560.03
2022-12-26T07:21:00.139Z,100544.91
2022-12-26T07:23:03.111Z,100546.41
2022-12-26T07:25:05.379Z,100558.38
2022-12-26T07:27:06.925Z,100563.81
2022-12-26T07:29:11.291Z,100558.19
2022-12-26T07:31:16.167Z,100548.97
2022-12-26T07:33:17.958Z,100549.47
2022-12-26T07:35:19.558Z,100549.25
2022-12-26T07:37:21.078Z,100559.47
2022-12-26T07:39:23.953Z,100560.50
2022-12-26T07:41:25.818Z,100561.97
2022-12-26T07:43:27.480Z,100559.47
2022-12-26T07:45:29.318Z,100568.50
2022-12-26T07:47:30.884Z,100571.13
2022-12-26T07:49:32.657Z,100568.31
2022-12-26T07:51:34.207Z,100564.53
2022-12-26T07:53:36.211Z,100563.63
2022-12-26T07:55:39.088Z,100561.66
2022-12-26T07:57:49.349Z,100555.13
2022-12-26T07:59:53.645Z,100557.84
2022-12-26T08:01:55.599Z,100559.25
2022-12-26T08:03:57.888Z,100563.00
2022-12-26T08:06:00.176Z,100561.53
2022-12-26T08:08:02.470Z,100577.28
2022-12-26T08:10:04.654Z,100581.84
2022-12-26T08:12:07.931Z,100589.72
2022-12-26T08:14:11.104Z,100600.28
2022-12-26T08:16:14.272Z,100591.97
2022-12-26T08:18:15.861Z,100602.22
2022-12-26T08:20:17.589Z,100599.50
2022-12-26T08:22:19.174Z,100611.94
2022-12-26T08:24:20.787Z,100621.09
2022-12-26T08:28:45.370Z,100608.13
2022-12-26T08:30:47.460Z,100604.03
2022-12-26T08:32:50.727Z,100612.25
2022-12-26T08:34:52.287Z,100614.94
2022-12-26T08:36:53.819Z,100633.44
2022-12-26T08:38:55.308Z,100637.47
2022-12-26T08:40:58.280Z,100649.00
2022-12-26T08:43:29.844Z,100647.19
2022-12-26T08:45:23.615Z,100648.38
2022-12-26T08:47:25.148Z,100647.56
2022-12-26T08:49:26.672Z,100644.00
2022-12-26T08:51:28.232Z,100655.97
2022-12-26T08:53:31.036Z,100650.78
2022-12-26T08:55:32.595Z,100648.88
2022-12-26T08:57:34.171Z,100646.53
2022-12-26T08:59:35.705Z,100634.41
2022-12-26T09:01:38.707Z,100640.81
2022-12-26T09:03:40.780Z,100638.63
2022-12-26T09:05:42.799Z,100632.03
2022-12-26T09:07:44.521Z,100617.72
2022-12-26T09:09:46.104Z,100602.88
2022-12-26T09:11:49.711Z,100597.91
2022-12-26T09:13:51.357Z,100609.81
2022-12-26T09:15:52.931Z,100611.13
2022-12-26T09:17:55.832Z,100611.50
2022-12-26T09:19:58.078Z,100627.50
2022-12-26T09:21:59.805Z,100642.97
2022-12-26T09:24:03.361Z,100654.88
2022-12-26T09:26:06.413Z,100669.44
2022-12-26T09:28:08.017Z,100666.00
2022-12-26T09:30:09.973Z,100678.00
2022-12-26T09:32:11.472Z,100673.31
2022-12-26T09:34:14.361Z,100665.19
2022-12-26T09:36:17.674Z,100658.00
2022-12-26T09:38:19.258Z,100656.56
2022-12-26T09:40:24.196Z,100662.72
2022-12-26T09:42:33.755Z,100658.91
2022-12-26T09:44:44.489Z,100648.66
2022-12-26T09:46:55.420Z,100651.16
2022-12-26T09:49:02.839Z,100687.16
2022-12-26T09:51:05.939Z,100715.84
2022-12-26T09:53:12.409Z,100721.47
2022-12-26T09:55:30.265Z,100729.50
2022-12-26T09:57:38.003Z,100730.84
2022-12-26T09:59:47.418Z,100711.28
2022-12-26T10:01:49.342Z,100710.88
2022-12-26T10:03:53.982Z,100723.31
2022-12-26T10:06:09.287Z,100719.50
2022-12-26T10:08:25.592Z,100708.91
2022-12-26T10:10:35.135Z,100698.06
2022-12-26T10:12:42.370Z,100689.72
2022-12-26T10:14:51.634Z,100688.16
2022-12-26T10:16:58.667Z,100691.09
2022-12-26T10:19:08.562Z,100692.69
2022-12-26T10:21:24.326Z,100710.88
2022-12-26T10:23:32.744Z,100719.56
2022-12-26T10:25:42.529Z,100718.78
2022-12-26T10:27:48.137Z,100716.41
2022-12-26T10:29:55.199Z,100713.97
2022-12-26T10:32:00.371Z,100712.97
2022-12-26T10:34:08.135Z,100702.72
2022-12-26T10:36:21.854Z,100700.31
2022-12-26T10:38:29.694Z,100696.72
2022-12-26T10:40:36.897Z,100705.66
2022-12-26T10:42:40.300Z,100715.38
2022-12-26T10:44:42.018Z,100728.34
2022-12-26T10:47:17.909Z,100720.00
2022-12-26T10:49:22.870Z,100718.91
2022-12-26T10:51:26.621Z,100717.50
2022-12-26T10:53:28.233Z,100709.44
2022-12-26T10:55:32.048Z,100712.97
2022-12-26T10:57:37.193Z,100714.06
2022-12-26T10:59:46.081Z,100716.81
2022-12-26T11:01:49.444Z,100722.75
2022-12-26T11:03:55.425Z,100716.56
2022-12-26T11:06:08.071Z,100714.38
2022-12-26T11:08:19.147Z,100704.13
2022-12-26T11:10:22.843Z,100701.31
2022-12-26T11:12:27.555Z,100702.06
2022-12-26T11:14:34.189Z,100701.94
2022-12-26T11:16:40.048Z,100706.75
2022-12-26T11:18:48.441Z,100710.31
2022-12-26T11:20:50.561Z,100713.91
2022-12-26T11:22:52.340Z,100716.25
2022-12-26T11:25:12.186Z,100706.69
2022-12-26T11:27:18.724Z,100707.25
2022-12-26T11:29:22.522Z,100717.06
2022-12-26T11:31:25.853Z,100702.94
2022-12-26T11:33:31.092Z,100701.41
2022-12-26T11:35:37.726Z,100688.66
2022-12-26T11:37:44.520Z,100693.50
2022-12-26T11:39:50.613Z,100698.13
2022-12-26T11:41:54.331Z,100706.25
2022-12-26T11:43:57.771Z,100705.59
2022-12-26T11:45:59.779Z,100701.28
2022-12-26T11:48:01.446Z,100699.00
2022-12-26T11:50:06.348Z,100700.97
2022-12-26T11:52:34.647Z,100701.94
2022-12-26T11:54:46.831Z,100704.91
2022-12-26T11:56:59.167Z,100699.13
2022-12-26T11:59:14.927Z,100704.34
2022-12-26T12:01:16.796Z,100698.28
2022-12-26T12:03:22.732Z,100700.97
2022-12-26T12:05:39.317Z,100704.16
2022-12-26T12:07:56.857Z,100700.25
2022-12-26T12:10:03.342Z,100703.53
2022-12-26T12:12:15.484Z,100704.06
2022-12-26T12:14:33.897Z,100691.81
2022-12-26T12:16:47.782Z,100691.25
2022-12-26T12:18:56.968Z,100686.06
2022-12-26T12:21:10.654Z,100682.41
2022-12-26T12:23:32.287Z,100681.31
2022-12-26T12:25:47.481Z,100687.91
2022-12-26T12:27:59.570Z,100690.13
2022-12-26T12:30:14.370Z,100690.69
2022-12-26T12:32:22.693Z,100679.03
2022-12-26T12:34:36.354Z,100663.84
2022-12-26T12:36:52.944Z,100666.31
2022-12-26T12:39:02.010Z,100668.28
2022-12-26T12:41:21.532Z,100672.28
2022-12-26T12:43:34.558Z,100675.59
2022-12-26T12:45:43.306Z,100673.31
2022-12-26T12:47:56.335Z,100676.75
2022-12-26T12:50:04.546Z,100675.00
2022-12-26T12:52:19.398Z,100676.06
2022-12-26T12:54:41.374Z,100689.31
2022-12-26T12:56:51.313Z,100692.66
2022-12-26T12:59:02.557Z,100683.78
2022-12-26T13:01:10.354Z,100690.72
2022-12-26T13:03:22.520Z,100681.25
2022-12-26T13:05:35.188Z,100690.91
2022-12-26T13:07:45.245Z,100681.91
2022-12-26T13:09:52.914Z,100685.13
2022-12-26T13:12:01.010Z,100677.06
2022-12-26T13:14:06.916Z,100679.88
2022-12-26T13:16:14.046Z,100671.16
2022-12-26T13:18:18.848Z,100675.41
2022-12-26T13:20:28.667Z,100678.09
2022-12-26T13:22:34.379Z,100672.31
2022-12-26T13:24:41.024Z,100674.22
2022-12-26T13:26:46.717Z,100673.56
2022-12-26T13:28:58.555Z,100668.34
2022-12-26T13:31:00.183Z,100665.94
2022-12-26T13:33:03.809Z,100671.06
2022-12-26T13:35:05.956Z,100676.84
2022-12-26T13:37:51.364Z,100661.63
2022-12-26T13:39:53.336Z,100659.19
2022-12-26T13:42:01.822Z,100660.00
2022-12-26T13:44:05.502Z,100657.31
2022-12-26T13:46:52.974Z,100654.59
2022-12-26T13:48:59.265Z,100652.09
2022-12-26T13:51:02.974Z,100649.25
2022-12-26T13:53:05.268Z,100644.34
2022-12-26T13:55:43.128Z,100642.72
2022-12-26T13:57:45.147Z,100638.34
2022-12-26T14:00:17.011Z,100640.84
2022-12-26T14:03:15.917Z,100641.63
2022-12-26T14:05:26.312Z,100644.00
2022-12-26T14:07:34.268Z,100638.06
2022-12-26T14:09:45.475Z,100635.28
2022-12-26T14:12:16.060Z,100636.59
2022-12-26T14:14:29.896Z,100636.97
2022-12-26T14:16:37.962Z,100630.66
2022-12-26T14:18:49.309Z,100634.69
2022-12-26T14:21:09.838Z,100630.97
2022-12-26T14:23:41.609Z,100642.91
2022-12-26T14:25:52.571Z,100636.69
2022-12-26T14:28:09.535Z,100646.69
2022-12-26T14:30:24.087Z,100649.50
2022-12-26T14:32:38.201Z,100649.84
2022-12-26T14:34:51.220Z,100649.91
2022-12-26T14:37:02.112Z,100647.97
2022-12-26T14:39:18.348Z,100652.09
2022-12-26T14:41:20.753Z,100651.94
2022-12-26T14:43:35.690Z,100646.84
2022-12-26T14:45:44.306Z,100656.84
2022-12-26T14:47:48.414Z,100649.84
2022-12-26T14:49:50.388Z,100657.00
2022-12-26T14:51:52.504Z,100659.28
2022-12-26T14:54:27.606Z,100669.03
2022-12-26T14:56:36.533Z,100663.03
2022-12-26T14:58:41.587Z,100672.78
2022-12-26T15:00:44.007Z,100669.78
2022-12-26T15:02:53.355Z,100668.47
2022-12-26T15:05:09.443Z,100675.09
2022-12-26T15:07:58.136Z,100670.69
2022-12-26T15:10:28.376Z,100667.41
2022-12-26T15:13:19.225Z,100679.03
2022-12-26T15:15:32.384Z,100672.81
2022-12-26T15:17:46.753Z,100671.50
2022-12-26T15:20:26.018Z,100680.09
2022-12-26T15:22:52.465Z,100681.81
2022-12-26T15:25:26.673Z,100678.91
2022-12-26T15:27:42.735Z,100684.81
2022-12-26T15:30:03.303Z,100678.91
2022-12-26T15:32:13.040Z,100675.38
2022-12-26T15:34:45.062Z,100668.44
2022-12-26T15:36:53.511Z,100670.56
2022-12-26T15:39:01.568Z,100668.13
2022-12-26T15:41:12.700Z,100671.28
2022-12-26T15:43:38.941Z,100660.38
2022-12-26T15:45:47.849Z,100672.28
2022-12-26T15:47:57.170Z,100678.91
2022-12-26T15:50:15.283Z,100680.00
2022-12-26T15:52:29.297Z,100668.06
2022-12-26T15:54:51.794Z,100671.78
2022-12-26T15:57:12.456Z,100657.50
2022-12-26T15:59:46.933Z,100646.41
2022-12-26T16:01:49.127Z,100653.66
2022-12-26T16:03:56.651Z,100654.44
2022-12-26T16:06:05.992Z,100661.78
2022-12-26T16:08:52.694Z,100667.13
2022-12-26T16:11:14.888Z,100673.88
2022-12-26T16:13:18.798Z,100679.50
2022-12-26T16:15:21.725Z,100673.78
2022-12-26T16:17:23.810Z,100687.41
2022-12-26T16:19:28.072Z,100691.94
2022-12-26T16:21:29.703Z,100691.22
2022-12-26T16:23:35.317Z,100697.56
2022-12-26T16:25:38.176Z,100698.63
2022-12-26T16:27:40.300Z,100711.63
2022-12-26T16:29:47.811Z,100719.97
2022-12-26T16:31:49.599Z,100739.72
2022-12-26T16:33:58.967Z,100735.66
2022-12-26T16:36:01.457Z,100739.97
2022-12-26T16:38:06.504Z,100748.81
2022-12-26T16:40:17.825Z,100753.19
2022-12-26T16:42:29.386Z,100742.47
2022-12-26T16:44:36.247Z,100755.81
2022-12-26T16:46:39.442Z,100760.13
2022-12-26T16:48:42.152Z,100762.97
2022-12-26T16:50:49.320Z,100763.53
2022-12-26T16:53:02.033Z,100780.28
2022-12-26T16:55:26.192Z,100778.09
2022-12-26T16:57:27.857Z,100790.16
2022-12-26T16:59:39.071Z,100786.75
2022-12-26T17:01:42.679Z,100787.31
2022-12-26T17:03:49.924Z,100788.66
2022-12-26T17:05:51.651Z,100782.44
2022-12-26T17:07:55.896Z,100784.03
2022-12-26T17:09:59.576Z,100775.69
2022-12-26T17:12:04.233Z,100778.97
2022-12-26T17:14:13.954Z,100771.66
2022-12-26T17:16:15.744Z,100782.25
2022-12-26T17:18:39.598Z,100789.00
2022-12-26T17:20:41.258Z,100795.03
2022-12-26T17:22:42.807Z,100793.13
2022-12-26T17:24:45.466Z,100798.31
2022-12-26T17:26:52.506Z,100823.97
2022-12-26T17:28:54.195Z,100838.59
2022-12-26T17:30:55.919Z,100840.22
2022-12-26T17:33:02.984Z,100847.28
2022-12-26T17:35:11.347Z,100842.78
2022-12-26T17:37:20.928Z,100856.66
2022-12-26T17:39:24.179Z,100861.53
2022-12-26T17:41:25.710Z,100833.31
2022-12-26T17:43:31.489Z,100832.78
2022-12-26T17:45:33.152Z,100842.06
2022-12-26T17:47:34.701Z,100833.41
2022-12-26T17:49:36.204Z,100838.34
2022-12-26T17:51:39.075Z,100841.06
2022-12-26T17:53:42.387Z,100833.47
2022-12-26T17:55:44.087Z,100829.41
2022-12-26T17:57:45.672Z,100827.47
2022-12-26T17:59:49.078Z,100823.22
2022-12-26T18:01:50.638Z,100835.66
2022-12-26T18:03:52.205Z,100838.06
2022-12-26T18:05:59.799Z,100850.78
2022-12-26T18:08:03.764Z,100849.72
2022-12-26T18:10:06.347Z,100860.53
2022-12-26T18:12:10.640Z,100871.91
2022-12-26T18:14:13.847Z,100867.28
2022-12-26T18:16:18.696Z,100863.50
2022-12-26T18:18:26.710Z,100864.63
2022-12-26T18:20:29.790Z,100857.63
2022-12-26T18:22:31.649Z,100863.56
2022-12-26T18:24:34.522Z,100866.56
2022-12-26T18:26:36.620Z,100864.63
2022-12-26T18:28:38.226Z,100886.53
2022-12-26T18:30:40.375Z,100883.03
2022-12-26T18:32:41.975Z,100891.47
2022-12-26T18:34:43.539Z,100880.34
2022-12-26T18:36:45.220Z,100870.91
2022-12-26T18:38:46.815Z,100873.34
2022-12-26T18:40:51.726Z,100876.63
2022-12-26T18:42:53.303Z,100875.75
2022-12-26T18:44:55.048Z,100882.50
2022-12-26T18:46:56.588Z,100877.94
2022-12-26T18:48:58.169Z,100892.00
2022-12-26T18:50:59.729Z,100893.09
2022-12-26T18:53:01.466Z,100889.88
2022-12-26T18:55:03.172Z,100897.47
2022-12-26T18:57:08.282Z,100909.06
2022-12-26T18:59:11.374Z,100915.56
2022-12-26T19:01:14.753Z,100919.41
2022-12-26T19:03:16.391Z,100930.50
2022-12-26T19:05:20.031Z,100931.00
2022-12-26T19:07:21.671Z,100935.91
2022-12-26T19:09:23.201Z,100939.94
2022-12-26T19:11:24.929Z,100932.94
2022-12-26T19:13:27.834Z,100940.78
2022-12-26T19:15:29.396Z,100950.22
2022-12-26T19:17:30.988Z,100952.94
2022-12-26T19:19:32.639Z,100959.97
2022-12-26T19:21:34.166Z,100960.22
2022-12-26T19:23:35.713Z,100968.34
2022-12-26T19:25:37.287Z,100974.03
2022-12-26T19:27:39.959Z,100972.16
2022-12-26T19:29:42.861Z,100977.56
2022-12-26T19:31:44.580Z,100984.88
2022-12-26T19:33:48.928Z,100985.94
2022-12-26T19:35:55.374Z,100990.56
2022-12-26T19:37:57.668Z,100990.03
2022-12-26T19:39:59.244Z,101008.13
2022-12-26T19:42:00.833Z,101014.63
2022-12-26T19:44:02.380Z,101021.66
2022-12-26T19:46:07.487Z,101011.09
2022-12-26T19:48:09.210Z,101021.09
2022-12-26T19:50:11.723Z,101030.00
2022-12-26T19:52:13.653Z,101036.75
2022-12-26T19:54:15.400Z,101044.31
2022-12-26T19:56:21.028Z,101045.13
2022-12-26T19:58:22.667Z,101050.53
2022-12-26T20:00:24.242Z,101052.13
2022-12-26T20:02:27.367Z,101058.38
2022-12-26T20:04:29.246Z,101068.34
2022-12-26T20:06:44.057Z,101069.97
2022-12-26T20:08:47.664Z,101069.44
2022-12-26T20:10:49.241Z,101069.69
2022-12-26T20:12:50.910Z,101072.13
2022-12-26T20:14:52.544Z,101078.34
2022-12-26T20:17:11.201Z,101080.78
2022-12-26T20:19:14.185Z,101081.03
2022-12-26T20:21:16.252Z,101092.41
2022-12-26T20:23:17.772Z,101098.38
2022-12-26T20:25:19.435Z,101105.94
2022-12-26T20:27:21.045Z,101112.66
2022-12-26T20:29:22.733Z,101116.72
2022-12-26T20:31:24.472Z,101121.88
2022-12-26T20:33:26.099Z,101124.88
2022-12-26T20:35:29.140Z,101134.03
2022-12-26T20:37:30.733Z,101139.16
2022-12-26T20:39:32.309Z,101143.50
2022-12-26T20:41:34.709Z,101160.78
2022-12-26T20:43:36.930Z,101168.34
2022-12-26T20:45:38.496Z,101172.66
2022-12-26T20:47:40.199Z,101173.47
2022-12-26T20:49:41.748Z,101165.13
2022-12-26T20:51:45.229Z,101177.78
2022-12-26T20:53:50.032Z,101181.03
2022-12-26T20:55:52.185Z,101195.88
2022-12-26T20:57:53.731Z,101196.72
2022-12-26T20:59:55.304Z,101206.97
2022-12-26T21:01:56.948Z,101217.25
2022-12-26T21:03:58.829Z,101218.84
2022-12-26T21:06:05.843Z,101226.69
2022-12-26T21:08:08.763Z,101228.84
2022-12-26T21:10:10.657Z,101235.63
2022-12-26T21:12:12.218Z,101235.63
2022-12-26T21:14:17.390Z,101239.13
2022-12-26T21:16:21.941Z,101240.19
2022-12-26T21:18:23.479Z,101231.03
2022-12-26T21:20:25.079Z,101246.41
2022-12-26T21:22:26.603Z,101250.19
2022-12-26T21:24:31.369Z,101253.97
2022-12-26T21:26:36.102Z,101256.94
2022-12-26T21:28:38.041Z,101253.13
2022-12-26T21:30:44.410Z,101260.94
2022-12-26T21:32:46.322Z,101245.81
2022-12-26T21:34:47.854Z,101252.84
2022-12-26T21:36:50.019Z,101259.84
2022-12-26T21:38:51.694Z,101268.19
2022-12-26T21:40:54.652Z,101269.25
2022-12-26T21:43:01.301Z,101278.44
2022-12-26T21:45:02.848Z,101275.72
2022-12-26T21:47:05.457Z,101283.53
2022-12-26T21:49:07.060Z,101289.47
2022-12-26T21:51:08.999Z,101306.72
2022-12-26T21:53:10.794Z,101308.31
2022-12-26T21:55:12.451Z,101319.66
2022-12-26T21:57:15.955Z,101332.59
2022-12-26T21:59:17.544Z,101329.66
2022-12-26T22:01:20.306Z,101335.59
2022-12-26T22:03:22.008Z,101348.53
2022-12-26T22:05:25.305Z,101358.78
2022-12-26T22:07:27.256Z,101372.78
2022-12-26T22:09:28.846Z,101374.72
2022-12-26T22:11:31.012Z,101379.31
2022-12-26T22:13:41.119Z,101375.25
2022-12-26T22:15:43.513Z,101380.88
2022-12-26T22:17:45.053Z,101384.16
2022-12-26T22:19:46.579Z,101396.84
2022-12-26T22:21:48.167Z,101399.81
2022-12-26T22:23:50.957Z,101401.13
2022-12-26T22:25:53.694Z,101404.94
2022-12-26T22:27:55.226Z,101411.19
2022-12-26T22:29:58.147Z,101418.16
2022-12-26T22:31:59.677Z,101415.75
2022-12-26T22:34:03.243Z,101425.13
2022-12-26T22:36:08.097Z,101422.44
2022-12-26T22:38:09.746Z,101429.16
2022-12-26T22:40:12.394Z,101424.00
2022-12-26T22:42:14.088Z,101419.31
2022-12-26T22:44:15.868Z,101433.03
2022-12-26T22:46:18.846Z,101434.41
2022-12-26T22:48:20.827Z,101437.13
2022-12-26T22:50:22.330Z,101444.38
2022-12-26T22:52:23.895Z,101445.78
2022-12-26T22:54:25.543Z,101449.81
2022-12-26T22:56:28.400Z,101454.66
2022-12-26T22:58:31.043Z,101457.34
2022-12-26T23:00:32.572Z,101457.56
2022-12-26T23:02:35.653Z,101459.09
2022-12-26T23:04:38.211Z,101471.72
2022-12-26T23:06:41.169Z,101470.88
2022-12-26T23:08:43.108Z,101476.03
2022-12-26T23:10:45.431Z,101476.03
2022-12-26T23:12:47.482Z,101479.22
2022-12-26T23:14:49.252Z,101486.81
2022-12-26T23:16:55.598Z,101492.13
2022-12-26T23:19:01.260Z,101495.31
2022-12-26T23:21:16.736Z,101498.00
2022-12-26T23:23:18.854Z,101500.41
2022-12-26T23:25:20.401Z,101499.03
2022-12-26T23:27:21.912Z,101502.84
2022-12-26T23:29:24.429Z,101508.00
2022-12-26T23:31:26.044Z,101506.78
2022-12-26T23:33:27.537Z,101505.72
2022-12-26T23:35:30.454Z,101513.00
2022-12-26T23:37:31.984Z,101520.84
2022-12-26T23:39:33.528Z,101516.47
2022-12-26T23:41:35.116Z,101521.28
2022-12-26T23:43:36.601Z,101521.78
2022-12-26T23:45:42.309Z,101530.59
2022-12-26T23:47:45.619Z,101525.19
2022-12-26T23:49:47.136Z,101532.72
2022-12-26T23:51:50.054Z,101519.81
2022-12-26T23:53:51.655Z,101530.78
2022-12-26T23:55:53.152Z,101531.88
2022-12-26T23:57:55.515Z,101527.56
2022-12-26T23:59:57.074Z,101520.47
